Time;durP1;ratioP1;P1;durP2;ratioP2;P2;SDS_P1;SDS_P2;PMS_P1;PMS_P2;Temp;Humidity;BMP_temperature;BMP_pressure;BME280_temperature;BME280_humidity;BME280_pressure;Samples;Min_cycle;Max_cycle;Signal;HPM_P1;HPM_P2
2022/10/20 00:01:50;;;;;;;0.20;0.20;;;6.70;99.90;;;;;;4985508;28;20201;-88
2022/10/20 00:04:15;;;;;;;0.20;0.20;;;6.80;99.90;;;;;;5002794;28;20181;-88
2022/10/20 00:06:40;;;;;;;0.20;0.20;;;6.80;99.90;;;;;;4989072;28;20192;-87
2022/10/20 00:09:06;;;;;;;0.30;0.30;;;7.00;99.90;;;;;;5006729;28;20194;-88
2022/10/20 00:11:32;;;;;;;0.20;0.20;;;6.90;99.90;;;;;;5001620;28;20282;-87
2022/10/20 00:13:59;;;;;;;0.20;0.20;;;7.00;99.90;;;;;;5010205;28;20197;-88
2022/10/20 00:16:26;;;;;;;0.20;0.20;;;7.10;99.90;;;;;;5007951;28;20593;-87
2022/10/20 00:18:52;;;;;;;0.20;0.20;;;7.10;99.90;;;;;;5012649;28;21049;-88
2022/10/20 00:21:23;;;;;;;0.20;0.20;;;7.10;99.90;;;;;;5012291;28;20479;-87
2022/10/20 00:23:49;;;;;;;0.20;0.20;;;7.10;99.90;;;;;;5009296;28;20601;-87
2022/10/20 00:26:21;;;;;;;0.20;0.20;;;7.00;99.90;;;;;;4988400;28;21030;-87
2022/10/20 00:28:48;;;;;;;0.20;0.20;;;7.10;99.90;;;;;;5006123;28;20451;-86
2022/10/20 00:31:14;;;;;;;0.20;0.20;;;7.20;99.90;;;;;;5007169;28;20447;-87
2022/10/20 00:33:40;;;;;;;0.30;0.30;;;7.20;99.90;;;;;;5011462;28;21142;-88
2022/10/20 00:36:10;;;;;;;0.30;0.30;;;7.10;99.90;;;;;;5011497;28;20493;-88
2022/10/20 00:38:36;;;;;;;0.30;0.30;;;7.20;99.90;;;;;;5012633;28;20206;-87
2022/10/20 00:41:02;;;;;;;0.30;0.30;;;7.20;99.90;;;;;;4993613;28;20950;-88
2022/10/20 00:43:46;;;;;;;0.30;0.30;;;7.10;99.90;;;;;;5008381;28;20447;-88
2022/10/20 00:46:16;;;;;;;0.30;0.30;;;7.10;99.90;;;;;;4992879;28;20447;-88
2022/10/20 00:48:44;;;;;;;0.30;0.30;;;7.20;99.90;;;;;;5004933;28;20477;-87
2022/10/20 00:51:14;;;;;;;0.30;0.30;;;6.90;99.90;;;;;;5012004;28;20446;-87
2022/10/20 00:53:42;;;;;;;0.30;0.30;;;6.70;99.90;;;;;;5012603;28;20407;-86
2022/10/20 00:56:08;;;;;;;0.30;0.30;;;6.50;99.90;;;;;;4992388;28;20602;-87
2022/10/20 00:58:34;;;;;;;0.30;0.30;;;6.50;99.90;;;;;;5011630;28;20533;-87
2022/10/20 01:01:00;;;;;;;0.30;0.30;;;6.50;99.90;;;;;;5000409;28;20196;-87
2022/10/20 01:03:49;;;;;;;0.30;0.30;;;6.50;99.90;;;;;;5009260;28;20434;-88
2022/10/20 01:06:18;;;;;;;0.30;0.30;;;6.50;99.90;;;;;;5000494;28;20684;-88
2022/10/20 01:08:43;;;;;;;0.30;0.30;;;6.60;99.90;;;;;;4990601;28;20525;-88
2022/10/20 01:11:48;;;;;;;0.30;0.30;;;6.50;99.90;;;;;;4993673;28;20439;-87
2022/10/20 01:14:32;;;;;;;0.30;0.30;;;6.40;99.90;;;;;;4974088;28;20201;-88
2022/10/20 01:17:16;;;;;;;0.30;0.30;;;6.40;99.90;;;;;;5004804;28;20447;-87
2022/10/20 01:19:58;;;;;;;0.30;0.30;;;6.40;99.90;;;;;;4986496;28;20526;-87
2022/10/20 01:22:58;;;;;;;0.30;0.30;;;6.30;99.90;;;;;;4993276;28;20454;-87
2022/10/20 01:25:43;;;;;;;0.30;0.30;;;6.40;99.90;;;;;;5010846;28;20516;-88
2022/10/20 01:28:17;;;;;;;0.30;0.30;;;6.40;99.90;;;;;;4991321;28;20454;-87
2022/10/20 01:30:51;;;;;;;0.30;0.30;;;6.60;99.90;;;;;;5009189;28;20446;-88
2022/10/20 01:33:42;;;;;;;0.30;0.30;;;6.60;99.90;;;;;;5010146;28;20580;-87
2022/10/20 01:36:18;;;;;;;0.30;0.30;;;6.60;99.90;;;;;;4985626;28;20486;-87
2022/10/20 01:38:52;;;;;;;0.30;0.30;;;6.60;99.90;;;;;;4997282;28;20451;-88
2022/10/20 01:41:38;;;;;;;0.30;0.30;;;6.70;99.90;;;;;;5006074;28;20477;-88
2022/10/20 01:44:07;;;;;;;0.30;0.30;;;6.70;99.90;;;;;;5009161;28;20960;-87
2022/10/20 01:46:35;;;;;;;0.40;0.40;;;6.60;99.90;;;;;;5010032;28;20854;-87
2022/10/20 01:49:03;;;;;;;0.30;0.30;;;6.60;99.90;;;;;;4992526;28;20542;-87
2022/10/20 01:51:30;;;;;;;0.30;0.30;;;6.50;99.90;;;;;;5004293;28;20474;-87
2022/10/20 01:53:55;;;;;;;0.30;0.30;;;6.70;99.90;;;;;;4996534;28;20522;-87
2022/10/20 01:56:32;;;;;;;0.30;0.30;;;6.70;99.90;;;;;;5006379;28;20897;-88
2022/10/20 01:59:00;;;;;;;0.30;0.30;;;6.70;99.90;;;;;;4988884;28;20663;-87
2022/10/20 02:02:05;;;;;;;0.30;0.30;;;6.70;99.90;;;;;;5006941;28;20473;-87
2022/10/20 02:05:08;;;;;;;0.30;0.30;;;6.60;99.90;;;;;;4990967;28;20454;-87
2022/10/20 02:07:34;;;;;;;0.30;0.30;;;6.70;99.90;;;;;;4957629;28;20447;-88
2022/10/20 02:10:23;;;;;;;0.30;0.30;;;6.70;99.90;;;;;;5005540;28;21236;-86
2022/10/20 02:12:52;;;;;;;0.30;0.30;;;6.70;99.90;;;;;;5007319;28;20447;-86
2022/10/20 02:15:25;;;;;;;0.30;0.30;;;6.60;99.90;;;;;;5007402;28;20486;-86
2022/10/20 02:17:59;;;;;;;0.30;0.30;;;6.70;99.90;;;;;;5009252;28;20435;-87
2022/10/20 02:20:25;;;;;;;0.30;0.30;;;6.60;99.90;;;;;;5008520;28;20593;-87
2022/10/20 02:22:52;;;;;;;0.30;0.30;;;6.60;99.90;;;;;;5009048;28;20474;-87
2022/10/20 02:25:19;;;;;;;0.30;0.30;;;6.70;99.90;;;;;;4990003;28;20856;-87
2022/10/20 02:27:46;;;;;;;0.30;0.30;;;6.70;99.90;;;;;;5008234;28;20467;-88
2022/10/20 02:30:16;;;;;;;0.30;0.30;;;6.70;99.90;;;;;;5008435;28;22462;-87
2022/10/20 02:32:48;;;;;;;0.30;0.30;;;6.70;99.90;;;;;;5008808;28;20447;-87
2022/10/20 02:35:17;;;;;;;0.30;0.30;;;6.70;99.90;;;;;;5008944;28;20466;-87
2022/10/20 02:37:42;;;;;;;0.30;0.30;;;6.60;99.90;;;;;;4993025;28;20494;-87
2022/10/20 02:40:09;;;;;;;0.40;0.40;;;6.60;99.90;;;;;;5009298;28;20435;-85
2022/10/20 02:42:34;;;;;;;0.30;0.30;;;6.50;99.90;;;;;;5011576;28;20176;-87
2022/10/20 02:45:00;;;;;;;0.30;0.30;;;6.60;99.90;;;;;;5007361;28;20577;-86
2022/10/20 02:47:26;;;;;;;0.30;0.30;;;6.50;99.90;;;;;;5006529;28;20189;-88
2022/10/20 02:49:51;;;;;;;0.30;0.30;;;6.50;99.90;;;;;;4992762;28;20877;-86
2022/10/20 02:52:17;;;;;;;0.30;0.30;;;6.50;99.90;;;;;;5011126;28;20184;-86
2022/10/20 02:54:42;;;;;;;0.30;0.30;;;6.50;99.90;;;;;;5004799;28;20216;-87
2022/10/20 02:57:08;;;;;;;0.30;0.30;;;6.50;99.90;;;;;;4980229;28;20637;-87
2022/10/20 02:59:33;;;;;;;0.30;0.30;;;6.40;99.90;;;;;;4988292;28;20203;-87
2022/10/20 03:01:59;;;;;;;0.30;0.30;;;6.30;99.90;;;;;;5003121;28;20279;-86
2022/10/20 03:04:27;;;;;;;0.23;0.23;;;6.30;99.90;;;;;;5003729;28;20195;-87
2022/10/20 03:06:53;;;;;;;0.30;0.30;;;6.30;99.90;;;;;;5010208;28;20180;-88
2022/10/20 03:09:18;;;;;;;0.30;0.30;;;6.30;99.90;;;;;;5006185;28;20462;-87
2022/10/20 03:11:44;;;;;;;0.30;0.30;;;6.30;99.90;;;;;;5007128;28;20199;-86
2022/10/20 03:14:10;;;;;;;0.30;0.30;;;6.20;99.90;;;;;;4991459;28;20193;-87
2022/10/20 03:16:35;;;;;;;0.30;0.30;;;6.20;99.90;;;;;;5001816;28;20219;-86
2022/10/20 03:19:01;;;;;;;0.30;0.30;;;6.20;99.90;;;;;;5004163;28;20812;-86
2022/10/20 03:21:26;;;;;;;0.30;0.30;;;6.10;99.90;;;;;;5010612;28;20195;-87
2022/10/20 03:23:52;;;;;;;0.30;0.30;;;6.10;99.90;;;;;;5008334;28;20271;-87
2022/10/20 03:26:17;;;;;;;0.30;0.30;;;6.10;99.90;;;;;;5010616;28;20267;-86
2022/10/20 03:28:43;;;;;;;0.30;0.30;;;6.10;99.90;;;;;;5008307;28;20286;-86
2022/10/20 03:31:09;;;;;;;0.30;0.30;;;6.20;99.90;;;;;;5008901;28;20188;-87
2022/10/20 03:33:34;;;;;;;0.23;0.23;;;6.10;99.90;;;;;;5009586;28;20196;-86
2022/10/20 03:36:00;;;;;;;0.20;0.20;;;6.00;99.90;;;;;;5002356;28;20236;-87
2022/10/20 03:38:25;;;;;;;0.30;0.30;;;5.90;99.90;;;;;;4990838;28;20282;-87
2022/10/20 03:40:51;;;;;;;0.37;0.37;;;6.10;99.90;;;;;;5009728;28;20552;-86
2022/10/20 03:43:17;;;;;;;0.40;0.40;;;6.10;99.90;;;;;;5006873;28;20195;-87
2022/10/20 03:45:43;;;;;;;0.30;0.30;;;6.10;99.90;;;;;;5004687;28;20180;-87
2022/10/20 03:48:10;;;;;;;0.20;0.20;;;6.20;99.90;;;;;;5001703;28;20730;-87
2022/10/20 03:50:40;;;;;;;0.30;0.30;;;6.10;99.90;;;;;;5007580;28;20546;-87
2022/10/20 03:53:06;;;;;;;0.40;0.40;;;6.00;99.90;;;;;;4990958;28;20475;-87
2022/10/20 03:55:31;;;;;;;0.30;0.30;;;5.90;99.90;;;;;;5002215;28;20494;-86
2022/10/20 03:57:57;;;;;;;0.30;0.30;;;5.90;99.90;;;;;;5001198;28;20940;-87
2022/10/20 04:00:23;;;;;;;0.40;0.40;;;5.80;99.90;;;;;;5000745;28;20668;-87
2022/10/20 04:02:49;;;;;;;0.30;0.30;;;5.90;99.90;;;;;;4989009;28;20469;-87
2022/10/20 04:05:18;;;;;;;0.30;0.30;;;6.00;99.90;;;;;;4996774;28;20276;-86
2022/10/20 04:07:44;;;;;;;0.30;0.30;;;6.00;99.90;;;;;;4991088;28;20287;-87
2022/10/20 04:10:10;;;;;;;0.40;0.40;;;5.90;99.90;;;;;;5006822;28;20558;-87
2022/10/20 04:12:36;;;;;;;0.30;0.30;;;5.80;99.90;;;;;;4990618;28;20192;-87
2022/10/20 04:15:03;;;;;;;0.20;0.20;;;5.90;99.90;;;;;;5006040;28;20486;-86
2022/10/20 04:17:28;;;;;;;0.30;0.30;;;5.90;99.90;;;;;;5006369;28;20196;-86
2022/10/20 04:19:54;;;;;;;0.30;0.30;;;6.00;99.90;;;;;;5008612;28;20442;-87
2022/10/20 04:22:20;;;;;;;0.40;0.40;;;5.90;99.90;;;;;;5009020;28;20176;-86
2022/10/20 04:24:45;;;;;;;0.30;0.30;;;5.90;99.90;;;;;;5002321;28;20192;-86
2022/10/20 04:27:10;;;;;;;0.30;0.30;;;5.90;99.90;;;;;;5008100;28;20220;-87
2022/10/20 04:29:36;;;;;;;0.30;0.30;;;5.90;99.90;;;;;;5007522;28;20238;-87
2022/10/20 04:32:02;;;;;;;0.33;0.33;;;5.90;99.90;;;;;;5007620;28;20192;-87
2022/10/20 04:34:27;;;;;;;0.30;0.30;;;6.00;99.90;;;;;;5007499;28;20595;-86
2022/10/20 04:36:53;;;;;;;0.40;0.40;;;6.00;99.90;;;;;;5007709;28;20307;-86
2022/10/20 04:39:18;;;;;;;0.30;0.30;;;5.80;99.90;;;;;;5008762;28;20189;-87
2022/10/20 04:41:44;;;;;;;0.30;0.30;;;6.00;99.90;;;;;;4998373;28;20189;-86
2022/10/20 04:44:09;;;;;;;0.37;0.37;;;5.80;99.90;;;;;;5002414;28;20271;-87
2022/10/20 04:46:35;;;;;;;0.30;0.30;;;5.90;99.90;;;;;;5003394;28;20185;-86
2022/10/20 04:49:00;;;;;;;0.30;0.30;;;5.90;99.90;;;;;;5005005;28;20243;-87
2022/10/20 04:51:26;;;;;;;0.30;0.30;;;5.90;99.90;;;;;;5004004;28;20197;-86
2022/10/20 04:53:53;;;;;;;0.30;0.30;;;5.80;99.90;;;;;;5009862;28;20219;-87
2022/10/20 04:56:20;;;;;;;0.30;0.30;;;5.90;99.90;;;;;;5011702;28;20224;-86
2022/10/20 04:58:54;;;;;;;0.30;0.30;;;5.80;99.90;;;;;;5000723;28;20446;-86
2022/10/20 05:01:21;;;;;;;0.30;0.30;;;5.80;99.90;;;;;;5001508;28;20564;-87
2022/10/20 05:03:47;;;;;;;0.30;0.30;;;5.80;99.90;;;;;;4997999;28;20473;-87
2022/10/20 05:06:23;;;;;;;0.40;0.40;;;5.70;99.90;;;;;;5006392;28;20473;-87
2022/10/20 05:08:53;;;;;;;0.30;0.30;;;5.70;99.90;;;;;;5002772;28;20739;-86
2022/10/20 05:11:20;;;;;;;0.37;0.37;;;5.60;99.90;;;;;;5004649;28;20982;-87
2022/10/20 05:13:46;;;;;;;0.30;0.30;;;5.40;99.90;;;;;;5000753;28;20577;-86
2022/10/20 05:16:12;;;;;;;0.30;0.30;;;5.50;99.90;;;;;;5000565;28;20487;-87
2022/10/20 05:18:38;;;;;;;0.30;0.30;;;5.60;99.90;;;;;;5008132;28;20443;-86
2022/10/20 05:21:08;;;;;;;0.40;0.40;;;5.60;99.90;;;;;;5005787;28;20518;-87
2022/10/20 05:23:34;;;;;;;0.30;0.30;;;5.60;99.90;;;;;;5008732;28;20457;-87
2022/10/20 05:26:04;;;;;;;0.30;0.30;;;5.70;99.90;;;;;;5006828;28;20442;-87
2022/10/20 05:28:30;;;;;;;0.30;0.30;;;5.60;99.90;;;;;;5004016;28;20812;-86
2022/10/20 05:30:59;;;;;;;0.40;0.40;;;5.60;99.90;;;;;;5006587;28;20440;-87
2022/10/20 05:33:25;;;;;;;0.30;0.30;;;5.70;99.90;;;;;;5003116;28;20308;-86
2022/10/20 05:35:50;;;;;;;0.30;0.30;;;5.60;99.90;;;;;;5004572;28;20513;-86
2022/10/20 05:38:16;;;;;;;0.40;0.40;;;5.60;99.90;;;;;;5007672;28;20705;-87
2022/10/20 05:40:41;;;;;;;0.40;0.40;;;5.50;99.90;;;;;;5006046;28;20184;-86
2022/10/20 05:43:07;;;;;;;0.30;0.30;;;5.40;99.90;;;;;;5003803;28;20604;-86
2022/10/20 05:45:32;;;;;;;0.33;0.33;;;5.30;99.90;;;;;;5009391;28;20188;-86
2022/10/20 05:47:58;;;;;;;0.30;0.30;;;5.30;99.90;;;;;;5000431;28;20703;-85
2022/10/20 05:50:23;;;;;;;0.30;0.30;;;5.30;99.90;;;;;;5010391;28;20207;-86
2022/10/20 05:52:49;;;;;;;0.40;0.40;;;5.40;99.90;;;;;;4991810;28;20629;-87
2022/10/20 05:55:14;;;;;;;0.30;0.30;;;5.30;99.90;;;;;;5007369;28;20220;-85
2022/10/20 05:57:40;;;;;;;0.40;0.40;;;5.40;99.90;;;;;;5009478;28;20192;-86
2022/10/20 06:00:06;;;;;;;0.30;0.30;;;5.40;99.90;;;;;;5007397;28;20202;-86
2022/10/20 06:02:32;;;;;;;0.30;0.30;;;5.40;99.90;;;;;;4993636;28;20274;-86
2022/10/20 06:04:57;;;;;;;0.30;0.30;;;5.30;99.90;;;;;;4990235;28;20534;-86
2022/10/20 06:07:23;;;;;;;0.30;0.30;;;5.40;99.90;;;;;;4988485;28;20188;-86
2022/10/20 06:09:48;;;;;;;0.40;0.40;;;5.40;99.90;;;;;;5008016;28;20220;-86
2022/10/20 06:12:14;;;;;;;0.30;0.30;;;5.50;99.90;;;;;;5005112;28;20243;-85
2022/10/20 06:14:39;;;;;;;0.30;0.30;;;5.50;99.90;;;;;;4990395;28;20208;-87
2022/10/20 06:17:05;;;;;;;0.40;0.40;;;5.60;99.90;;;;;;5006353;28;20707;-86
2022/10/20 06:19:30;;;;;;;0.40;0.40;;;5.70;99.90;;;;;;4983824;28;20227;-86
2022/10/20 06:21:56;;;;;;;0.40;0.40;;;5.70;99.90;;;;;;5006995;28;20218;-86
2022/10/20 06:24:21;;;;;;;0.30;0.30;;;5.70;99.90;;;;;;5009043;28;20191;-86
2022/10/20 06:26:47;;;;;;;0.40;0.40;;;5.70;99.90;;;;;;5006617;28;20640;-87
2022/10/20 06:29:16;;;;;;;0.30;0.30;;;5.80;99.90;;;;;;5010566;28;20439;-88
2022/10/20 06:31:44;;;;;;;0.30;0.30;;;5.80;99.90;;;;;;4983631;28;20191;-87
2022/10/20 06:34:15;;;;;;;0.40;0.40;;;5.80;99.90;;;;;;4987631;28;20611;-86
2022/10/20 06:36:43;;;;;;;0.30;0.30;;;5.90;99.90;;;;;;4979980;28;21023;-86
2022/10/20 06:39:14;;;;;;;0.20;0.20;;;5.90;99.90;;;;;;5007224;28;20443;-85
2022/10/20 06:41:40;;;;;;;0.30;0.30;;;6.00;99.90;;;;;;5004523;28;21009;-85
2022/10/20 06:44:06;;;;;;;0.40;0.40;;;6.00;99.90;;;;;;5002817;28;20478;-85
2022/10/20 06:46:34;;;;;;;0.30;0.30;;;6.10;99.90;;;;;;5005793;28;20946;-86
2022/10/20 06:49:02;;;;;;;0.30;0.30;;;6.10;99.90;;;;;;5007028;28;20671;-86
2022/10/20 06:51:28;;;;;;;0.30;0.30;;;6.20;99.90;;;;;;5006469;28;20461;-85
2022/10/20 06:53:54;;;;;;;0.30;0.30;;;6.20;99.90;;;;;;4989505;28;20955;-86
2022/10/20 06:56:22;;;;;;;0.30;0.30;;;6.20;99.90;;;;;;5004401;28;20510;-86
2022/10/20 06:58:50;;;;;;;0.30;0.30;;;6.20;99.90;;;;;;5009357;28;20184;-86
2022/10/20 07:01:19;;;;;;;0.30;0.30;;;6.20;99.90;;;;;;5005900;28;20450;-86
2022/10/20 07:03:46;;;;;;;0.40;0.40;;;6.30;99.90;;;;;;4998601;28;21247;-86
2022/10/20 07:06:15;;;;;;;0.30;0.30;;;6.40;99.90;;;;;;5020620;28;20566;-86
2022/10/20 07:08:41;;;;;;;0.30;0.30;;;6.40;99.90;;;;;;4999978;28;20435;-84
2022/10/20 07:11:09;;;;;;;0.30;0.30;;;6.40;99.90;;;;;;5005423;28;20820;-84
2022/10/20 07:13:36;;;;;;;0.30;0.30;;;6.50;99.90;;;;;;5003208;28;20648;-87
2022/10/20 07:16:02;;;;;;;0.30;0.30;;;6.60;99.90;;;;;;4995583;28;20548;-85
2022/10/20 07:18:28;;;;;;;0.40;0.40;;;6.60;99.90;;;;;;4998680;28;20500;-85
2022/10/20 07:20:58;;;;;;;0.30;0.30;;;6.70;99.90;;;;;;5008785;28;20463;-86
2022/10/20 07:23:25;;;;;;;0.30;0.30;;;6.80;99.90;;;;;;5008322;28;20919;-85
2022/10/20 07:25:51;;;;;;;0.30;0.30;;;6.90;99.90;;;;;;4992924;28;21009;-84
2022/10/20 07:28:17;;;;;;;0.30;0.30;;;7.10;99.90;;;;;;4996760;28;20555;-86
2022/10/20 07:30:42;;;;;;;0.30;0.30;;;7.20;99.90;;;;;;5005331;28;20608;-85
2022/10/20 07:33:09;;;;;;;0.30;0.30;;;7.40;99.90;;;;;;5005485;28;20645;-85
2022/10/20 07:35:35;;;;;;;0.30;0.30;;;7.50;99.90;;;;;;5004592;28;20298;-85
2022/10/20 07:38:01;;;;;;;0.30;0.30;;;7.70;99.90;;;;;;5007547;28;20889;-85
2022/10/20 07:40:26;;;;;;;0.30;0.30;;;7.70;99.90;;;;;;4991048;28;20508;-88
2022/10/20 07:42:53;;;;;;;0.30;0.30;;;7.90;99.90;;;;;;4991689;28;20939;-84
2022/10/20 07:45:18;;;;;;;0.30;0.30;;;7.90;99.90;;;;;;5001610;28;20614;-85
2022/10/20 07:47:44;;;;;;;0.30;0.30;;;8.10;99.90;;;;;;5000633;28;20467;-84
2022/10/20 07:50:11;;;;;;;0.30;0.30;;;8.20;99.90;;;;;;4995996;28;20563;-84
2022/10/20 07:52:37;;;;;;;0.30;0.30;;;8.30;99.90;;;;;;5004017;28;20200;-84
2022/10/20 07:55:03;;;;;;;0.30;0.30;;;8.40;99.90;;;;;;5005913;28;20498;-84
2022/10/20 07:57:28;;;;;;;0.23;0.23;;;8.50;99.90;;;;;;5008200;28;20237;-84
2022/10/20 07:59:54;;;;;;;0.30;0.30;;;8.50;99.90;;;;;;4999273;28;20180;-83
2022/10/20 08:02:19;;;;;;;0.30;0.30;;;8.60;99.90;;;;;;5002050;28;20699;-83
2022/10/20 08:04:45;;;;;;;0.20;0.20;;;8.70;99.90;;;;;;5003768;28;20660;-83
2022/10/20 08:07:11;;;;;;;0.20;0.20;;;8.80;99.90;;;;;;4986112;28;20263;-83
2022/10/20 08:09:37;;;;;;;0.30;0.30;;;8.90;99.90;;;;;;5010251;28;20219;-80
2022/10/20 08:12:03;;;;;;;0.20;0.20;;;9.00;99.90;;;;;;4984847;28;20185;-83
2022/10/20 08:14:34;;;;;;;0.20;0.20;;;9.20;99.90;;;;;;4987961;28;20813;-83
2022/10/20 08:17:01;;;;;;;0.20;0.20;;;9.20;99.90;;;;;;5000414;28;20459;-83
2022/10/20 08:19:27;;;;;;;0.20;0.20;;;9.40;99.90;;;;;;5005125;28;21012;-83
2022/10/20 08:21:52;;;;;;;0.23;0.23;;;9.40;99.90;;;;;;5001819;28;20447;-83
2022/10/20 08:24:18;;;;;;;0.20;0.20;;;9.40;99.90;;;;;;5005499;28;20530;-85
2022/10/20 08:26:43;;;;;;;0.20;0.20;;;9.40;99.90;;;;;;4998851;28;20196;-85
2022/10/20 08:29:11;;;;;;;0.20;0.20;;;9.50;99.90;;;;;;5005726;28;20458;-86
2022/10/20 08:31:37;;;;;;;0.20;0.20;;;9.60;99.90;;;;;;4997748;28;20230;-85
2022/10/20 08:34:02;;;;;;;0.30;0.30;;;9.70;99.90;;;;;;5004056;28;20512;-86
2022/10/20 08:36:28;;;;;;;0.20;0.20;;;9.90;99.90;;;;;;5025163;28;20485;-82
2022/10/20 08:38:55;;;;;;;0.20;0.20;;;10.00;99.90;;;;;;5006085;28;20196;-83
2022/10/20 08:41:29;;;;;;;0.27;0.27;;;10.10;99.90;;;;;;5013464;28;20549;-84
2022/10/20 08:43:56;;;;;;;0.20;0.20;;;10.20;99.90;;;;;;5010102;28;20969;-84
2022/10/20 08:46:30;;;;;;;0.20;0.20;;;10.10;99.90;;;;;;5012114;28;21001;-82
2022/10/20 08:48:57;;;;;;;0.20;0.20;;;10.10;99.90;;;;;;5007970;28;20450;-85
2022/10/20 08:51:26;;;;;;;0.20;0.20;;;10.10;99.90;;;;;;5014409;28;20443;-85
2022/10/20 08:53:55;;;;;;;0.20;0.20;;;10.20;99.90;;;;;;5006469;28;20821;-85
2022/10/20 08:56:26;;;;;;;0.20;0.20;;;10.30;99.90;;;;;;5000069;28;20530;-84
2022/10/20 08:58:52;;;;;;;0.20;0.20;;;10.40;99.90;;;;;;5012106;28;20442;-84
2022/10/20 09:01:24;;;;;;;0.20;0.20;;;10.40;99.90;;;;;;5007671;28;20516;-84
2022/10/20 09:03:59;;;;;;;0.20;0.20;;;10.50;99.90;;;;;;5011789;28;20470;-85
2022/10/20 09:06:24;;;;;;;0.20;0.20;;;10.70;99.90;;;;;;5003649;28;20466;-82
2022/10/20 09:08:51;;;;;;;0.20;0.20;;;10.80;99.90;;;;;;5010002;28;20451;-83
2022/10/20 09:11:23;;;;;;;0.20;0.20;;;10.90;99.90;;;;;;5007378;28;20188;-82
2022/10/20 09:13:48;;;;;;;0.20;0.20;;;10.90;99.90;;;;;;5009742;28;20985;-85
2022/10/20 09:16:25;;;;;;;0.20;0.20;;;11.00;99.90;;;;;;5007355;28;20490;-85
2022/10/20 09:18:56;;;;;;;0.20;0.20;;;11.10;99.90;;;;;;5005648;28;20965;-80
2022/10/20 09:21:22;;;;;;;0.20;0.20;;;11.10;99.90;;;;;;5007172;28;20517;-85
2022/10/20 09:23:51;;;;;;;0.20;0.20;;;11.30;99.90;;;;;;5010964;28;20434;-84
2022/10/20 09:26:30;;;;;;;0.20;0.20;;;11.20;99.90;;;;;;4991837;28;20454;-82
2022/10/20 09:29:14;;;;;;;0.20;0.20;;;11.40;99.90;;;;;;4993182;28;20451;-82
2022/10/20 09:31:57;;;;;;;0.20;0.20;;;11.60;99.90;;;;;;5003451;28;20454;-84
2022/10/20 09:34:23;;;;;;;0.20;0.20;;;11.80;99.90;;;;;;5005251;28;20470;-83
2022/10/20 09:36:56;;;;;;;0.20;0.20;;;11.90;99.90;;;;;;4991324;28;20877;-84
2022/10/20 09:39:27;;;;;;;0.20;0.20;;;12.00;99.90;;;;;;5006748;28;20211;-83
2022/10/20 09:42:05;;;;;;;0.20;0.20;;;12.30;99.90;;;;;;4992189;28;20512;-84
2022/10/20 09:44:53;;;;;;;0.20;0.20;;;12.10;99.90;;;;;;5003776;28;20535;-88
2022/10/20 09:47:21;;;;;;;0.20;0.20;;;12.00;99.90;;;;;;5008426;28;20459;-82
2022/10/20 09:49:53;;;;;;;0.20;0.20;;;12.00;99.90;;;;;;5011975;28;20450;-83
2022/10/20 09:52:29;;;;;;;0.20;0.20;;;12.10;99.90;;;;;;5011704;28;20451;-87
2022/10/20 09:55:03;;;;;;;0.20;0.20;;;12.20;99.90;;;;;;4993033;28;20482;-86
2022/10/20 09:57:30;;;;;;;0.20;0.20;;;12.40;99.90;;;;;;5009846;28;20459;-84
2022/10/20 09:59:56;;;;;;;0.20;0.20;;;12.30;99.90;;;;;;4991439;28;20782;-88
2022/10/20 10:02:22;;;;;;;0.20;0.20;;;12.70;99.90;;;;;;5005118;28;20877;-82
2022/10/20 10:04:50;;;;;;;0.20;0.20;;;12.60;99.90;;;;;;5010143;28;20446;-86
2022/10/20 10:07:24;;;;;;;0.20;0.20;;;12.70;99.90;;;;;;4996306;28;20736;-87
2022/10/20 10:09:59;;;;;;;0.20;0.20;;;12.60;99.90;;;;;;5002410;28;20446;-85
2022/10/20 10:12:26;;;;;;;0.20;0.20;;;13.30;99.90;;;;;;5007969;28;20455;-85
2022/10/20 10:15:05;;;;;;;0.10;0.10;;;13.70;99.90;;;;;;4996584;28;20607;-85
2022/10/20 10:17:33;;;;;;;0.10;0.10;;;13.90;99.90;;;;;;5003350;28;20451;-87
2022/10/20 10:20:06;;;;;;;0.10;0.10;;;13.50;99.90;;;;;;4985800;28;21046;-84
2022/10/20 10:22:33;;;;;;;0.10;0.10;;;13.70;99.90;;;;;;5020302;28;20536;-85
2022/10/20 10:25:00;;;;;;;0.20;0.20;;;13.80;99.90;;;;;;4998950;28;20454;-84
2022/10/20 10:27:34;;;;;;;0.10;0.10;;;13.50;99.90;;;;;;4990204;28;20882;-87
2022/10/20 10:30:28;;;;;;;0.10;0.10;;;13.40;99.90;;;;;;4986450;28;20839;-82
2022/10/20 10:32:54;;;;;;;0.10;0.10;;;13.70;99.90;;;;;;5001914;28;20573;-85
2022/10/20 10:35:39;;;;;;;0.10;0.10;;;13.90;99.90;;;;;;5008593;28;20581;-83
2022/10/20 10:38:08;;;;;;;0.00;0.00;;;14.50;99.90;;;;;;5007177;28;20470;-84
2022/10/20 10:40:55;;;;;;;0.10;0.10;;;14.40;99.90;;;;;;4990909;28;20427;-86
2022/10/20 10:43:45;;;;;;;0.10;0.10;;;14.50;99.90;;;;;;5009786;28;20507;-86
2022/10/20 10:46:18;;;;;;;0.10;0.10;;;15.30;99.90;;;;;;5008618;28;20436;-84
2022/10/20 10:48:55;;;;;;;0.10;0.10;;;15.70;99.90;;;;;;5006114;28;20481;-87
2022/10/20 10:51:39;;;;;;;0.10;0.10;;;16.20;99.90;;;;;;5006386;28;20843;-86
2022/10/20 10:54:18;;;;;;;0.10;0.10;;;16.60;99.90;;;;;;4982956;28;20443;-87
2022/10/20 10:56:48;;;;;;;0.10;0.10;;;16.50;99.90;;;;;;4988058;28;20858;-82
2022/10/20 10:59:22;;;;;;;0.10;0.10;;;16.20;99.90;;;;;;5005318;28;20490;-85
2022/10/20 11:02:00;;;;;;;0.10;0.10;;;15.50;99.90;;;;;;4991873;28;20959;-83
2022/10/20 11:04:35;;;;;;;0.10;0.10;;;14.80;99.90;;;;;;4991134;28;20443;-85
2022/10/20 11:07:00;;;;;;;0.10;0.10;;;14.40;99.90;;;;;;4986811;28;20988;-84
2022/10/20 11:09:44;;;;;;;0.10;0.10;;;14.60;99.90;;;;;;4993511;28;20451;-85
2022/10/20 11:12:43;;;;;;;0.10;0.10;;;15.40;99.90;;;;;;4990023;28;20192;-87
2022/10/20 11:15:48;;;;;;;0.10;0.10;;;16.30;99.90;;;;;;5000515;28;20576;-87
2022/10/20 11:18:29;;;;;;;0.10;0.10;;;16.70;99.90;;;;;;4992770;28;20450;-87
2022/10/20 11:21:08;;;;;;;0.10;0.10;;;17.60;99.90;;;;;;4992349;28;20523;-88
2022/10/20 11:23:39;;;;;;;0.10;0.10;;;17.80;99.90;;;;;;5003084;28;20830;-87
2022/10/20 11:26:27;;;;;;;0.10;0.10;;;17.20;99.90;;;;;;4991519;28;20522;-88
2022/10/20 11:28:55;;;;;;;0.10;0.10;;;17.20;99.90;;;;;;5002918;28;20864;-86
2022/10/20 11:31:33;;;;;;;0.10;0.10;;;17.40;99.90;;;;;;5009166;28;20475;-90
2022/10/20 11:34:22;;;;;;;0.10;0.10;;;17.60;99.90;;;;;;5008468;28;21002;-87
2022/10/20 11:37:16;;;;;;;0.10;0.10;;;17.30;99.90;;;;;;4987622;28;20621;-87
2022/10/20 11:40:04;;;;;;;0.10;0.10;;;17.70;99.90;;;;;;4989238;28;20493;-89
2022/10/20 11:43:15;;;;;;;0.10;0.10;;;18.40;99.90;;;;;;4991782;28;20513;-86
2022/10/20 11:45:54;;;;;;;0.10;0.10;;;17.60;99.90;;;;;;5002897;28;20590;-87
2022/10/20 11:48:35;;;;;;;0.10;0.10;;;17.40;99.90;;;;;;5008735;28;20501;-87
2022/10/20 11:51:12;;;;;;;0.10;0.10;;;18.10;99.90;;;;;;5006874;28;20431;-88
2022/10/20 11:54:15;;;;;;;0.10;0.10;;;18.90;99.90;;;;;;5008911;28;20538;-85
2022/10/20 11:57:02;;;;;;;0.10;0.00;;;19.20;99.90;;;;;;5004507;28;20482;-83
2022/10/20 12:00:10;;;;;;;0.00;0.00;;;19.10;99.90;;;;;;5007453;28;20446;-86
2022/10/20 12:03:06;;;;;;;0.00;0.00;;;18.20;99.90;;;;;;5002326;28;20462;-87
2022/10/20 12:06:05;;;;;;;0.10;0.10;;;16.90;99.90;;;;;;5004201;28;20992;-84
2022/10/20 12:08:56;;;;;;;0.10;0.10;;;16.20;99.90;;;;;;5003868;28;20566;-85
2022/10/20 12:11:37;;;;;;;0.10;0.10;;;17.00;99.90;;;;;;4993621;28;21005;-85
2022/10/20 12:14:02;;;;;;;0.10;0.10;;;17.80;99.90;;;;;;4983518;28;20450;-86
2022/10/20 12:16:53;;;;;;;0.10;0.10;;;18.00;99.90;;;;;;4988833;28;20483;-86
2022/10/20 12:19:26;;;;;;;0.00;0.00;;;19.00;99.90;;;;;;4994341;28;20176;-86
2022/10/20 12:22:12;;;;;;;0.07;0.07;;;18.90;99.90;;;;;;5002738;28;20538;-85
2022/10/20 12:25:02;;;;;;;0.00;0.00;;;19.20;99.90;;;;;;4989611;28;20475;-86
2022/10/20 12:27:27;;;;;;;0.10;0.00;;;18.60;99.90;;;;;;5005500;28;20454;-84
2022/10/20 12:29:57;;;;;;;0.00;0.00;;;18.80;99.90;;;;;;5011923;28;20755;-86
2022/10/20 12:32:53;;;;;;;0.10;0.00;;;19.00;99.90;;;;;;5011244;28;20718;-84
2022/10/20 12:35:18;;;;;;;0.10;0.10;;;18.70;99.90;;;;;;5001816;28;20506;-83
2022/10/20 12:37:54;;;;;;;0.10;0.00;;;18.10;99.90;;;;;;5011584;28;20518;-86
2022/10/20 12:40:24;;;;;;;0.10;0.10;;;18.40;99.90;;;;;;4994051;28;20176;-84
2022/10/20 12:42:54;;;;;;;0.10;0.10;;;18.10;99.90;;;;;;4990243;28;20462;-85
2022/10/20 12:45:19;;;;;;;0.10;0.10;;;17.20;99.90;;;;;;5000498;28;20444;-85
2022/10/20 12:48:00;;;;;;;0.10;0.00;;;17.80;99.90;;;;;;4992646;28;21032;-86
2022/10/20 12:50:44;;;;;;;0.10;0.10;;;19.00;99.90;;;;;;4989993;28;20208;-86
2022/10/20 12:53:11;;;;;;;0.10;0.00;;;18.70;99.90;;;;;;5008340;28;20450;-86
2022/10/20 12:55:38;;;;;;;0.10;0.00;;;19.20;99.90;;;;;;4993572;28;20483;-85
2022/10/20 12:58:17;;;;;;;0.10;0.00;;;19.60;99.90;;;;;;4994172;28;21309;-84
2022/10/20 13:00:45;;;;;;;0.10;0.00;;;20.00;99.90;;;;;;5008961;28;20442;-85
2022/10/20 13:03:42;;;;;;;0.10;0.00;;;19.00;99.90;;;;;;5011279;28;20415;-86
2022/10/20 13:06:26;;;;;;;0.10;0.00;;;19.00;99.90;;;;;;5008709;28;21247;-85
2022/10/20 13:09:04;;;;;;;0.10;0.10;;;18.80;99.90;;;;;;5004006;28;20526;-85
2022/10/20 13:11:41;;;;;;;0.10;0.10;;;18.80;99.90;;;;;;4994069;28;20453;-85
2022/10/20 13:14:40;;;;;;;0.10;0.00;;;19.90;99.90;;;;;;5003529;28;20478;-85